Main page
METAR-TAF:

METAR-TAF

Airports :

Driggs–Reed Memorial Airport

Driggs, Idaho, United States

latitude: 43-44-33N, longitude: 111-05-51W, elevation: 6229 ft

Current weather observation

The report was made 49 minutes ago, at 12:56 UTC
Wind 7 mph from the East
Temperature -2°F
Humidity 84%
Pressure 30.26 in. Hg
Visibility: 10 miles
Clear sky

METAR: KDIJ 031256Z AUTO 08006KT 10SM CLR M19/M21 A3026 RMK AO2 SLP369 T11891211

Time: 06:45 (13:45 UTC)

Forecast

The report was made 2 hours and 18 minutes ago, at 11:27 UTC
Forecast valid from 03 at 12 UTC to 04 at 12 UTC
Wind 7 mph from the Southeast
Visibility: 6 miles
Scattered clouds at a height of 15000 ft
From 03 at 2000 UTC
Wind 3 mph from variable directions
Visibility: 6 miles
Clear sky
From 04 at 0000 UTC
Wind 7 mph from the Southeast
Visibility: 6 miles
Scattered clouds at a height of 5000 ft
Broken clouds at a height of 20000 ft

TAF: KDIJ 031127Z 0312/0412 14006KT P6SM SCT150 FM032000 VRB03KT P6SM SKC FM040000 14006KT P6SM SCT050 BKN200 AMD LTD TO CLD VIS AND WIND

Weather observations and forecasts of more than 4000 airports (METAR and TAF reports).

The available stations are represented by yellow and red dots on the map.

Hover mouse over dot to see the name of the station.

Then click to see weather observations and forecasts.

To change the map : click on the green buttons with a black cross to zoom in, on the green button with a dash to zoom out, or on the green arrows for adjacent maps.


METAR-TAF: